sensor_id;sensor_type;location;lat;lon;timestamp;pressure;altitude;pressure_sealevel;temperature
11849;BMP180;5983;49.966;8.052;2023-06-22T00:01:20;100685.00;;;23.30
11849;BMP180;5983;49.966;8.052;2023-06-22T00:03:48;100704.00;;;23.30
11849;BMP180;5983;49.966;8.052;2023-06-22T00:06:15;100719.00;;;23.30
11849;BMP180;5983;49.966;8.052;2023-06-22T00:08:42;100713.00;;;23.20
11849;BMP180;5983;49.966;8.052;2023-06-22T00:11:09;100711.00;;;23.20
11849;BMP180;5983;49.966;8.052;2023-06-22T00:13:38;100687.00;;;23.30
11849;BMP180;5983;49.966;8.052;2023-06-22T00:16:06;100683.00;;;23.30
11849;BMP180;5983;49.966;8.052;2023-06-22T00:18:33;100677.00;;;23.30
11849;BMP180;5983;49.966;8.052;2023-06-22T00:21:00;100683.00;;;23.30
11849;BMP180;5983;49.966;8.052;2023-06-22T00:23:27;100685.00;;;23.30
11849;BMP180;5983;49.966;8.052;2023-06-22T00:25:54;100696.00;;;23.20
11849;BMP180;5983;49.966;8.052;2023-06-22T00:28:21;100708.00;;;23.10
11849;BMP180;5983;49.966;8.052;2023-06-22T00:30:49;100719.00;;;23.10
11849;BMP180;5983;49.966;8.052;2023-06-22T00:33:17;100734.00;;;23.10
11849;BMP180;5983;49.966;8.052;2023-06-22T00:35:44;100759.00;;;23.00
11849;BMP180;5983;49.966;8.052;2023-06-22T00:38:11;100765.00;;;22.90
11849;BMP180;5983;49.966;8.052;2023-06-22T00:40:38;100771.00;;;22.90
11849;BMP180;5983;49.966;8.052;2023-06-22T00:43:05;100786.00;;;22.90
11849;BMP180;5983;49.966;8.052;2023-06-22T00:45:32;100788.00;;;22.90
11849;BMP180;5983;49.966;8.052;2023-06-22T00:48:00;100797.00;;;22.80
11849;BMP180;5983;49.966;8.052;2023-06-22T00:50:31;100807.00;;;22.70
11849;BMP180;5983;49.966;8.052;2023-06-22T00:53:03;100810.00;;;22.70
11849;BMP180;5983;49.966;8.052;2023-06-22T00:55:34;100787.00;;;22.60
11849;BMP180;5983;49.966;8.052;2023-06-22T00:58:03;100752.00;;;22.60
11849;BMP180;5983;49.966;8.052;2023-06-22T01:00:33;100705.00;;;22.60
11849;BMP180;5983;49.966;8.052;2023-06-22T01:03:02;100654.00;;;22.70
11849;BMP180;5983;49.966;8.052;2023-06-22T01:05:32;100611.00;;;22.70
11849;BMP180;5983;49.966;8.052;2023-06-22T01:08:15;100637.00;;;22.70
11849;BMP180;5983;49.966;8.052;2023-06-22T01:10:49;100663.00;;;22.70
11849;BMP180;5983;49.966;8.052;2023-06-22T01:13:28;100681.00;;;22.60
11849;BMP180;5983;49.966;8.052;2023-06-22T01:16:01;100683.00;;;22.40
11849;BMP180;5983;49.966;8.052;2023-06-22T01:18:31;100684.00;;;22.40
11849;BMP180;5983;49.966;8.052;2023-06-22T01:21:01;100679.00;;;22.30
11849;BMP180;5983;49.966;8.052;2023-06-22T01:23:50;100685.00;;;22.30
11849;BMP180;5983;49.966;8.052;2023-06-22T01:26:22;100686.00;;;22.20
11849;BMP180;5983;49.966;8.052;2023-06-22T01:28:57;100705.00;;;22.20
11849;BMP180;5983;49.966;8.052;2023-06-22T01:31:28;100713.00;;;22.10
11849;BMP180;5983;49.966;8.052;2023-06-22T01:33:59;100710.00;;;22.10
11849;BMP180;5983;49.966;8.052;2023-06-22T01:36:29;100701.00;;;22.10
11849;BMP180;5983;49.966;8.052;2023-06-22T01:38:57;100686.00;;;22.10
11849;BMP180;5983;49.966;8.052;2023-06-22T01:41:27;100653.00;;;22.10
11849;BMP180;5983;49.966;8.052;2023-06-22T01:43:56;100657.00;;;22.10
11849;BMP180;5983;49.966;8.052;2023-06-22T01:46:24;100650.00;;;22.10
11849;BMP180;5983;49.966;8.052;2023-06-22T01:48:52;100655.00;;;22.10
11849;BMP180;5983;49.966;8.052;2023-06-22T01:51:19;100645.00;;;22.10
11849;BMP180;5983;49.966;8.052;2023-06-22T01:53:46;100641.00;;;22.10
11849;BMP180;5983;49.966;8.052;2023-06-22T01:56:17;100639.00;;;22.00
11849;BMP180;5983;49.966;8.052;2023-06-22T01:58:50;100639.00;;;22.00
11849;BMP180;5983;49.966;8.052;2023-06-22T02:01:29;100639.00;;;22.00
11849;BMP180;5983;49.966;8.052;2023-06-22T02:04:04;100647.00;;;22.00
11849;BMP180;5983;49.966;8.052;2023-06-22T02:06:37;100662.00;;;21.90
11849;BMP180;5983;49.966;8.052;2023-06-22T02:09:09;100672.00;;;21.90
11849;BMP180;5983;49.966;8.052;2023-06-22T02:11:42;100678.00;;;21.90
11849;BMP180;5983;49.966;8.052;2023-06-22T02:14:10;100677.00;;;21.80
11849;BMP180;5983;49.966;8.052;2023-06-22T02:16:41;100684.00;;;21.80
11849;BMP180;5983;49.966;8.052;2023-06-22T02:19:08;100694.00;;;21.90
11849;BMP180;5983;49.966;8.052;2023-06-22T02:21:35;100712.00;;;21.80
11849;BMP180;5983;49.966;8.052;2023-06-22T02:24:02;100689.00;;;21.80
11849;BMP180;5983;49.966;8.052;2023-06-22T02:26:31;100688.00;;;21.80
11849;BMP180;5983;49.966;8.052;2023-06-22T02:28:58;100677.00;;;21.80
11849;BMP180;5983;49.966;8.052;2023-06-22T02:31:25;100651.00;;;21.70
11849;BMP180;5983;49.966;8.052;2023-06-22T02:33:57;100632.00;;;21.70
11849;BMP180;5983;49.966;8.052;2023-06-22T02:36:24;100629.00;;;21.70
11849;BMP180;5983;49.966;8.052;2023-06-22T02:38:52;100619.00;;;21.80
11849;BMP180;5983;49.966;8.052;2023-06-22T02:41:20;100613.00;;;21.70
11849;BMP180;5983;49.966;8.052;2023-06-22T02:43:47;100613.00;;;21.70
11849;BMP180;5983;49.966;8.052;2023-06-22T02:46:14;100616.00;;;21.60
11849;BMP180;5983;49.966;8.052;2023-06-22T02:48:41;100617.00;;;21.60
11849;BMP180;5983;49.966;8.052;2023-06-22T02:51:09;100607.00;;;21.60
11849;BMP180;5983;49.966;8.052;2023-06-22T02:53:36;100616.00;;;21.60
11849;BMP180;5983;49.966;8.052;2023-06-22T02:56:03;100612.00;;;21.60
11849;BMP180;5983;49.966;8.052;2023-06-22T02:58:31;100599.00;;;21.60
11849;BMP180;5983;49.966;8.052;2023-06-22T03:01:04;100592.00;;;21.60
11849;BMP180;5983;49.966;8.052;2023-06-22T03:03:31;100581.00;;;21.50
11849;BMP180;5983;49.966;8.052;2023-06-22T03:05:58;100579.00;;;21.50
11849;BMP180;5983;49.966;8.052;2023-06-22T03:08:27;100589.00;;;21.50
11849;BMP180;5983;49.966;8.052;2023-06-22T03:10:55;100591.00;;;21.50
11849;BMP180;5983;49.966;8.052;2023-06-22T03:13:22;100590.00;;;21.50
11849;BMP180;5983;49.966;8.052;2023-06-22T03:15:49;100581.00;;;21.50
11849;BMP180;5983;49.966;8.052;2023-06-22T03:18:16;100581.00;;;21.50
11849;BMP180;5983;49.966;8.052;2023-06-22T03:20:43;100592.00;;;21.50
11849;BMP180;5983;49.966;8.052;2023-06-22T03:23:10;100582.00;;;21.50
11849;BMP180;5983;49.966;8.052;2023-06-22T03:25:38;100578.00;;;21.50
11849;BMP180;5983;49.966;8.052;2023-06-22T03:28:05;100576.00;;;21.40
11849;BMP180;5983;49.966;8.052;2023-06-22T03:30:32;100569.00;;;21.40
11849;BMP180;5983;49.966;8.052;2023-06-22T03:32:59;100563.00;;;21.40
11849;BMP180;5983;49.966;8.052;2023-06-22T03:35:25;100571.00;;;21.40
11849;BMP180;5983;49.966;8.052;2023-06-22T03:37:52;100569.00;;;21.40
11849;BMP180;5983;49.966;8.052;2023-06-22T03:40:19;100564.00;;;21.40
11849;BMP180;5983;49.966;8.052;2023-06-22T03:42:48;100565.00;;;21.40
11849;BMP180;5983;49.966;8.052;2023-06-22T03:45:15;100565.00;;;21.30
11849;BMP180;5983;49.966;8.052;2023-06-22T03:47:42;100568.00;;;21.30
11849;BMP180;5983;49.966;8.052;2023-06-22T03:50:10;100575.00;;;21.30
11849;BMP180;5983;49.966;8.052;2023-06-22T03:52:36;100578.00;;;21.30
11849;BMP180;5983;49.966;8.052;2023-06-22T03:55:05;100573.00;;;21.30
11849;BMP180;5983;49.966;8.052;2023-06-22T03:57:32;100577.00;;;21.40
11849;BMP180;5983;49.966;8.052;2023-06-22T04:00:01;100569.00;;;21.40
11849;BMP180;5983;49.966;8.052;2023-06-22T04:02:31;100581.00;;;21.40
11849;BMP180;5983;49.966;8.052;2023-06-22T04:04:58;100583.00;;;21.40
11849;BMP180;5983;49.966;8.052;2023-06-22T04:07:25;100594.00;;;21.40
11849;BMP180;5983;49.966;8.052;2023-06-22T04:09:51;100592.00;;;21.50
11849;BMP180;5983;49.966;8.052;2023-06-22T04:12:19;100590.00;;;21.50
11849;BMP180;5983;49.966;8.052;2023-06-22T04:14:46;100595.00;;;21.50
11849;BMP180;5983;49.966;8.052;2023-06-22T04:17:14;100597.00;;;21.50
11849;BMP180;5983;49.966;8.052;2023-06-22T04:19:41;100608.00;;;21.50
11849;BMP180;5983;49.966;8.052;2023-06-22T04:22:08;100599.00;;;21.50
11849;BMP180;5983;49.966;8.052;2023-06-22T04:24:35;100605.00;;;21.60
11849;BMP180;5983;49.966;8.052;2023-06-22T04:27:03;100603.00;;;21.50
11849;BMP180;5983;49.966;8.052;2023-06-22T04:29:30;100597.00;;;21.60
11849;BMP180;5983;49.966;8.052;2023-06-22T04:31:58;100604.00;;;21.60
11849;BMP180;5983;49.966;8.052;2023-06-22T04:34:30;100605.00;;;21.60
11849;BMP180;5983;49.966;8.052;2023-06-22T04:36:57;100600.00;;;21.50
11849;BMP180;5983;49.966;8.052;2023-06-22T04:39:24;100599.00;;;21.60
11849;BMP180;5983;49.966;8.052;2023-06-22T04:41:52;100591.00;;;21.60
11849;BMP180;5983;49.966;8.052;2023-06-22T04:44:20;100574.00;;;21.60
11849;BMP180;5983;49.966;8.052;2023-06-22T04:46:50;100587.00;;;21.60
11849;BMP180;5983;49.966;8.052;2023-06-22T04:49:20;100586.00;;;21.60
11849;BMP180;5983;49.966;8.052;2023-06-22T04:51:49;100594.00;;;21.50
11849;BMP180;5983;49.966;8.052;2023-06-22T04:54:17;100594.00;;;21.50
11849;BMP180;5983;49.966;8.052;2023-06-22T04:56:44;100590.00;;;21.40
11849;BMP180;5983;49.966;8.052;2023-06-22T04:59:12;100590.00;;;21.50
11849;BMP180;5983;49.966;8.052;2023-06-22T05:01:39;100593.00;;;21.50
11849;BMP180;5983;49.966;8.052;2023-06-22T05:04:06;100589.00;;;21.50
11849;BMP180;5983;49.966;8.052;2023-06-22T05:06:33;100591.00;;;21.50
11849;BMP180;5983;49.966;8.052;2023-06-22T05:09:02;100592.00;;;21.60
11849;BMP180;5983;49.966;8.052;2023-06-22T05:11:29;100592.00;;;21.70
11849;BMP180;5983;49.966;8.052;2023-06-22T05:13:56;100583.00;;;21.70
11849;BMP180;5983;49.966;8.052;2023-06-22T05:16:23;100595.00;;;21.80
11849;BMP180;5983;49.966;8.052;2023-06-22T05:18:52;100578.00;;;21.90
11849;BMP180;5983;49.966;8.052;2023-06-22T05:21:23;100573.00;;;22.00
11849;BMP180;5983;49.966;8.052;2023-06-22T05:23:50;100564.00;;;22.10
11849;BMP180;5983;49.966;8.052;2023-06-22T05:26:20;100562.00;;;22.20
11849;BMP180;5983;49.966;8.052;2023-06-22T05:28:48;100561.00;;;22.30
11849;BMP180;5983;49.966;8.052;2023-06-22T05:31:15;100560.00;;;22.40
11849;BMP180;5983;49.966;8.052;2023-06-22T05:33:44;100557.00;;;22.50
11849;BMP180;5983;49.966;8.052;2023-06-22T05:36:11;100562.00;;;22.60
11849;BMP180;5983;49.966;8.052;2023-06-22T05:38:39;100563.00;;;22.70
11849;BMP180;5983;49.966;8.052;2023-06-22T05:41:07;100561.00;;;22.80
11849;BMP180;5983;49.966;8.052;2023-06-22T05:43:35;100544.00;;;23.00
11849;BMP180;5983;49.966;8.052;2023-06-22T05:46:04;100554.00;;;23.10
11849;BMP180;5983;49.966;8.052;2023-06-22T05:48:31;100551.00;;;23.20
11849;BMP180;5983;49.966;8.052;2023-06-22T05:50:58;100554.00;;;23.30
11849;BMP180;5983;49.966;8.052;2023-06-22T05:53:25;100569.00;;;23.40
11849;BMP180;5983;49.966;8.052;2023-06-22T05:55:52;100570.00;;;23.50
11849;BMP180;5983;49.966;8.052;2023-06-22T05:58:19;100568.00;;;23.60
11849;BMP180;5983;49.966;8.052;2023-06-22T06:00:48;100565.00;;;23.70
11849;BMP180;5983;49.966;8.052;2023-06-22T06:03:15;100572.00;;;23.80
11849;BMP180;5983;49.966;8.052;2023-06-22T06:05:43;100567.00;;;23.90
11849;BMP180;5983;49.966;8.052;2023-06-22T06:08:11;100558.00;;;24.00
11849;BMP180;5983;49.966;8.052;2023-06-22T06:10:38;100568.00;;;24.10
11849;BMP180;5983;49.966;8.052;2023-06-22T06:13:05;100575.00;;;24.20
11849;BMP180;5983;49.966;8.052;2023-06-22T06:15:32;100567.00;;;24.20
11849;BMP180;5983;49.966;8.052;2023-06-22T06:18:00;100569.00;;;24.10
11849;BMP180;5983;49.966;8.052;2023-06-22T06:20:30;100574.00;;;24.20
11849;BMP180;5983;49.966;8.052;2023-06-22T06:22:58;100570.00;;;24.20
11849;BMP180;5983;49.966;8.052;2023-06-22T06:25:24;100563.00;;;24.20
11849;BMP180;5983;49.966;8.052;2023-06-22T06:27:52;100568.00;;;24.20
11849;BMP180;5983;49.966;8.052;2023-06-22T06:30:20;100561.00;;;24.20
11849;BMP180;5983;49.966;8.052;2023-06-22T06:32:48;100565.00;;;24.10
11849;BMP180;5983;49.966;8.052;2023-06-22T06:35:17;100551.00;;;24.20
11849;BMP180;5983;49.966;8.052;2023-06-22T06:37:47;100547.00;;;24.30
11849;BMP180;5983;49.966;8.052;2023-06-22T06:40:15;100540.00;;;24.40
11849;BMP180;5983;49.966;8.052;2023-06-22T06:42:44;100543.00;;;24.60
11849;BMP180;5983;49.966;8.052;2023-06-22T06:45:12;100556.00;;;24.80
11849;BMP180;5983;49.966;8.052;2023-06-22T06:47:39;100549.00;;;24.80
11849;BMP180;5983;49.966;8.052;2023-06-22T06:50:08;100552.00;;;24.90
11849;BMP180;5983;49.966;8.052;2023-06-22T06:52:36;100554.00;;;24.90
11849;BMP180;5983;49.966;8.052;2023-06-22T06:55:04;100547.00;;;24.90
11849;BMP180;5983;49.966;8.052;2023-06-22T06:57:33;100539.00;;;24.90
11849;BMP180;5983;49.966;8.052;2023-06-22T07:00:00;100547.00;;;25.10
11849;BMP180;5983;49.966;8.052;2023-06-22T07:02:27;100547.00;;;25.20
11849;BMP180;5983;49.966;8.052;2023-06-22T07:04:54;100547.00;;;25.40
11849;BMP180;5983;49.966;8.052;2023-06-22T07:07:22;100551.00;;;25.50
11849;BMP180;5983;49.966;8.052;2023-06-22T07:09:50;100566.00;;;25.60
11849;BMP180;5983;49.966;8.052;2023-06-22T07:12:17;100554.00;;;25.70
11849;BMP180;5983;49.966;8.052;2023-06-22T07:14:44;100549.00;;;25.80
11849;BMP180;5983;49.966;8.052;2023-06-22T07:17:10;100540.00;;;25.90
11849;BMP180;5983;49.966;8.052;2023-06-22T07:19:37;100543.00;;;26.00
11849;BMP180;5983;49.966;8.052;2023-06-22T07:22:04;100538.00;;;26.10
11849;BMP180;5983;49.966;8.052;2023-06-22T07:24:31;100532.00;;;26.10
11849;BMP180;5983;49.966;8.052;2023-06-22T07:27:00;100534.00;;;26.20
11849;BMP180;5983;49.966;8.052;2023-06-22T07:29:28;100525.00;;;26.30
11849;BMP180;5983;49.966;8.052;2023-06-22T07:31:55;100519.00;;;26.30
11849;BMP180;5983;49.966;8.052;2023-06-22T07:34:22;100520.00;;;26.40
11849;BMP180;5983;49.966;8.052;2023-06-22T07:36:50;100521.00;;;26.50
11849;BMP180;5983;49.966;8.052;2023-06-22T07:39:16;100521.00;;;26.50
11849;BMP180;5983;49.966;8.052;2023-06-22T07:41:43;100509.00;;;26.70
11849;BMP180;5983;49.966;8.052;2023-06-22T07:44:12;100508.00;;;26.80
11849;BMP180;5983;49.966;8.052;2023-06-22T07:46:38;100504.00;;;26.90
11849;BMP180;5983;49.966;8.052;2023-06-22T07:49:05;100510.00;;;26.90
11849;BMP180;5983;49.966;8.052;2023-06-22T07:51:33;100504.00;;;27.00
11849;BMP180;5983;49.966;8.052;2023-06-22T07:54:00;100506.00;;;27.00
11849;BMP180;5983;49.966;8.052;2023-06-22T07:56:27;100517.00;;;27.10
11849;BMP180;5983;49.966;8.052;2023-06-22T07:58:54;100516.00;;;27.20
11849;BMP180;5983;49.966;8.052;2023-06-22T08:01:25;100510.00;;;27.30
11849;BMP180;5983;49.966;8.052;2023-06-22T08:03:51;100510.00;;;27.30
11849;BMP180;5983;49.966;8.052;2023-06-22T08:06:18;100503.00;;;27.30
11849;BMP180;5983;49.966;8.052;2023-06-22T08:08:45;100498.00;;;27.30
11849;BMP180;5983;49.966;8.052;2023-06-22T08:11:13;100502.00;;;27.40
11849;BMP180;5983;49.966;8.052;2023-06-22T08:13:40;100492.00;;;27.50
11849;BMP180;5983;49.966;8.052;2023-06-22T08:16:07;100483.00;;;27.50
11849;BMP180;5983;49.966;8.052;2023-06-22T08:18:35;100485.00;;;27.50
11849;BMP180;5983;49.966;8.052;2023-06-22T08:21:02;100482.00;;;27.60
11849;BMP180;5983;49.966;8.052;2023-06-22T08:23:29;100473.00;;;27.70
11849;BMP180;5983;49.966;8.052;2023-06-22T08:25:56;100476.00;;;27.80
11849;BMP180;5983;49.966;8.052;2023-06-22T08:28:23;100482.00;;;27.90
11849;BMP180;5983;49.966;8.052;2023-06-22T08:30:49;100481.00;;;27.90
11849;BMP180;5983;49.966;8.052;2023-06-22T08:33:16;100479.00;;;28.10
11849;BMP180;5983;49.966;8.052;2023-06-22T08:35:44;100470.00;;;28.20
11849;BMP180;5983;49.966;8.052;2023-06-22T08:38:11;100465.00;;;28.40
11849;BMP180;5983;49.966;8.052;2023-06-22T08:40:41;100459.00;;;28.40
11849;BMP180;5983;49.966;8.052;2023-06-22T08:43:07;100461.00;;;28.40
11849;BMP180;5983;49.966;8.052;2023-06-22T08:45:34;100453.00;;;28.40
11849;BMP180;5983;49.966;8.052;2023-06-22T08:48:01;100454.00;;;28.70
11849;BMP180;5983;49.966;8.052;2023-06-22T08:50:28;100459.00;;;28.70
11849;BMP180;5983;49.966;8.052;2023-06-22T08:52:56;100448.00;;;28.80
11849;BMP180;5983;49.966;8.052;2023-06-22T08:55:23;100450.00;;;28.80
11849;BMP180;5983;49.966;8.052;2023-06-22T08:57:50;100453.00;;;28.90
11849;BMP180;5983;49.966;8.052;2023-06-22T09:00:18;100447.00;;;28.70
11849;BMP180;5983;49.966;8.052;2023-06-22T09:02:46;100447.00;;;28.60
11849;BMP180;5983;49.966;8.052;2023-06-22T09:05:14;100438.00;;;28.70
11849;BMP180;5983;49.966;8.052;2023-06-22T09:07:41;100433.00;;;28.80
11849;BMP180;5983;49.966;8.052;2023-06-22T09:10:10;100437.00;;;29.00
11849;BMP180;5983;49.966;8.052;2023-06-22T09:12:37;100448.00;;;29.30
11849;BMP180;5983;49.966;8.052;2023-06-22T09:15:05;100454.00;;;29.40
11849;BMP180;5983;49.966;8.052;2023-06-22T09:17:33;100435.00;;;29.30
11849;BMP180;5983;49.966;8.052;2023-06-22T09:20:01;100434.00;;;29.40
11849;BMP180;5983;49.966;8.052;2023-06-22T09:22:31;100436.00;;;29.50
11849;BMP180;5983;49.966;8.052;2023-06-22T09:24:58;100433.00;;;29.40
11849;BMP180;5983;49.966;8.052;2023-06-22T09:27:26;100430.00;;;29.70
11849;BMP180;5983;49.966;8.052;2023-06-22T09:29:53;100437.00;;;29.70
11849;BMP180;5983;49.966;8.052;2023-06-22T09:32:20;100442.00;;;29.70
11849;BMP180;5983;49.966;8.052;2023-06-22T09:34:47;100433.00;;;29.50
11849;BMP180;5983;49.966;8.052;2023-06-22T09:37:14;100417.00;;;29.50
11849;BMP180;5983;49.966;8.052;2023-06-22T09:39:41;100414.00;;;29.40
11849;BMP180;5983;49.966;8.052;2023-06-22T09:42:08;100410.00;;;29.60
11849;BMP180;5983;49.966;8.052;2023-06-22T09:44:36;100409.00;;;29.70
11849;BMP180;5983;49.966;8.052;2023-06-22T09:47:04;100407.00;;;30.00
11849;BMP180;5983;49.966;8.052;2023-06-22T09:49:31;100396.00;;;30.10
11849;BMP180;5983;49.966;8.052;2023-06-22T09:51:58;100391.00;;;30.20
11849;BMP180;5983;49.966;8.052;2023-06-22T09:54:25;100390.00;;;30.20
11849;BMP180;5983;49.966;8.052;2023-06-22T09:56:52;100386.00;;;30.20
11849;BMP180;5983;49.966;8.052;2023-06-22T09:59:19;100389.00;;;30.20
11849;BMP180;5983;49.966;8.052;2023-06-22T10:01:47;100378.00;;;30.20
11849;BMP180;5983;49.966;8.052;2023-06-22T10:04:14;100389.00;;;30.10
11849;BMP180;5983;49.966;8.052;2023-06-22T10:06:41;100383.00;;;29.90
11849;BMP180;5983;49.966;8.052;2023-06-22T10:09:08;100371.00;;;29.80
11849;BMP180;5983;49.966;8.052;2023-06-22T10:11:34;100371.00;;;29.80
11849;BMP180;5983;49.966;8.052;2023-06-22T10:14:02;100371.00;;;29.80
11849;BMP180;5983;49.966;8.052;2023-06-22T10:16:33;100371.00;;;29.90
11849;BMP180;5983;49.966;8.052;2023-06-22T10:19:02;100360.00;;;29.90
11849;BMP180;5983;49.966;8.052;2023-06-22T10:21:29;100348.00;;;30.10
11849;BMP180;5983;49.966;8.052;2023-06-22T10:23:57;100343.00;;;30.30
11849;BMP180;5983;49.966;8.052;2023-06-22T10:26:24;100343.00;;;30.40
11849;BMP180;5983;49.966;8.052;2023-06-22T10:28:54;100336.00;;;30.40
11849;BMP180;5983;49.966;8.052;2023-06-22T10:31:21;100318.00;;;30.60
11849;BMP180;5983;49.966;8.052;2023-06-22T10:33:49;100323.00;;;30.60
11849;BMP180;5983;49.966;8.052;2023-06-22T10:36:18;100316.00;;;30.70
11849;BMP180;5983;49.966;8.052;2023-06-22T10:38:45;100315.00;;;30.90
11849;BMP180;5983;49.966;8.052;2023-06-22T10:41:12;100322.00;;;31.00
11849;BMP180;5983;49.966;8.052;2023-06-22T10:43:39;100314.00;;;30.90
11849;BMP180;5983;49.966;8.052;2023-06-22T10:46:07;100312.00;;;31.00
11849;BMP180;5983;49.966;8.052;2023-06-22T10:48:34;100311.00;;;30.90
11849;BMP180;5983;49.966;8.052;2023-06-22T10:51:01;100308.00;;;30.90
11849;BMP180;5983;49.966;8.052;2023-06-22T10:53:30;100295.00;;;30.80
11849;BMP180;5983;49.966;8.052;2023-06-22T10:55:57;100296.00;;;30.90
11849;BMP180;5983;49.966;8.052;2023-06-22T10:58:24;100297.00;;;30.90
11849;BMP180;5983;49.966;8.052;2023-06-22T11:00:52;100295.00;;;30.90
11849;BMP180;5983;49.966;8.052;2023-06-22T11:03:19;100286.00;;;31.10
11849;BMP180;5983;49.966;8.052;2023-06-22T11:05:46;100277.00;;;31.20
11849;BMP180;5983;49.966;8.052;2023-06-22T11:08:13;100273.00;;;31.30
11849;BMP180;5983;49.966;8.052;2023-06-22T11:10:43;100283.00;;;31.40
11849;BMP180;5983;49.966;8.052;2023-06-22T11:13:11;100285.00;;;31.50
11849;BMP180;5983;49.966;8.052;2023-06-22T11:15:39;100272.00;;;31.60
11849;BMP180;5983;49.966;8.052;2023-06-22T11:18:06;100276.00;;;31.70
11849;BMP180;5983;49.966;8.052;2023-06-22T11:20:34;100270.00;;;31.80
11849;BMP180;5983;49.966;8.052;2023-06-22T11:23:04;100271.00;;;31.90
11849;BMP180;5983;49.966;8.052;2023-06-22T11:25:31;100258.00;;;31.80
11849;BMP180;5983;49.966;8.052;2023-06-22T11:28:02;100265.00;;;31.70
11849;BMP180;5983;49.966;8.052;2023-06-22T11:30:29;100264.00;;;31.80
11849;BMP180;5983;49.966;8.052;2023-06-22T11:32:58;100260.00;;;31.80
11849;BMP180;5983;49.966;8.052;2023-06-22T11:35:25;100256.00;;;31.80
11849;BMP180;5983;49.966;8.052;2023-06-22T11:37:52;100261.00;;;31.90
11849;BMP180;5983;49.966;8.052;2023-06-22T11:40:19;100256.00;;;31.80
11849;BMP180;5983;49.966;8.052;2023-06-22T11:42:46;100255.00;;;32.00
11849;BMP180;5983;49.966;8.052;2023-06-22T11:45:14;100241.00;;;32.00
11849;BMP180;5983;49.966;8.052;2023-06-22T11:50:18;100230.00;;;32.30
11849;BMP180;5983;49.966;8.052;2023-06-22T11:52:45;100237.00;;;32.30
11849;BMP180;5983;49.966;8.052;2023-06-22T11:55:12;100230.00;;;32.30
11849;BMP180;5983;49.966;8.052;2023-06-22T11:57:53;100226.00;;;32.30
11849;BMP180;5983;49.966;8.052;2023-06-22T12:00:22;100221.00;;;32.40
11849;BMP180;5983;49.966;8.052;2023-06-22T12:02:49;100230.00;;;32.70
11849;BMP180;5983;49.966;8.052;2023-06-22T12:05:19;100232.00;;;32.80
11849;BMP180;5983;49.966;8.052;2023-06-22T12:07:46;100239.00;;;32.70
11849;BMP180;5983;49.966;8.052;2023-06-22T12:10:13;100237.00;;;32.70
11849;BMP180;5983;49.966;8.052;2023-06-22T12:12:40;100225.00;;;32.70
11849;BMP180;5983;49.966;8.052;2023-06-22T12:15:08;100222.00;;;32.80
11849;BMP180;5983;49.966;8.052;2023-06-22T12:17:37;100223.00;;;32.90
11849;BMP180;5983;49.966;8.052;2023-06-22T12:20:06;100220.00;;;33.00
11849;BMP180;5983;49.966;8.052;2023-06-22T12:22:34;100213.00;;;33.20
11849;BMP180;5983;49.966;8.052;2023-06-22T12:25:04;100201.00;;;33.40
11849;BMP180;5983;49.966;8.052;2023-06-22T12:27:31;100199.00;;;33.50
11849;BMP180;5983;49.966;8.052;2023-06-22T12:29:58;100194.00;;;33.50
11849;BMP180;5983;49.966;8.052;2023-06-22T12:32:25;100188.00;;;33.60
11849;BMP180;5983;49.966;8.052;2023-06-22T12:34:53;100190.00;;;33.90
11849;BMP180;5983;49.966;8.052;2023-06-22T12:37:20;100192.00;;;34.00
11849;BMP180;5983;49.966;8.052;2023-06-22T12:39:47;100193.00;;;33.80
11849;BMP180;5983;49.966;8.052;2023-06-22T12:42:15;100199.00;;;33.70
11849;BMP180;5983;49.966;8.052;2023-06-22T12:44:43;100186.00;;;33.60
11849;BMP180;5983;49.966;8.052;2023-06-22T12:47:10;100176.00;;;33.50
11849;BMP180;5983;49.966;8.052;2023-06-22T12:49:37;100179.00;;;33.60
11849;BMP180;5983;49.966;8.052;2023-06-22T12:52:09;100182.00;;;33.80
11849;BMP180;5983;49.966;8.052;2023-06-22T12:54:36;100178.00;;;34.00
11849;BMP180;5983;49.966;8.052;2023-06-22T12:57:04;100171.00;;;34.00
11849;BMP180;5983;49.966;8.052;2023-06-22T12:59:31;100161.00;;;34.10
11849;BMP180;5983;49.966;8.052;2023-06-22T13:01:58;100155.00;;;34.10
11849;BMP180;5983;49.966;8.052;2023-06-22T13:04:25;100143.00;;;34.10
11849;BMP180;5983;49.966;8.052;2023-06-22T13:06:52;100162.00;;;34.00
11849;BMP180;5983;49.966;8.052;2023-06-22T13:09:20;100148.00;;;33.70
11849;BMP180;5983;49.966;8.052;2023-06-22T13:11:47;100142.00;;;33.60
11849;BMP180;5983;49.966;8.052;2023-06-22T13:14:14;100154.00;;;33.50
11849;BMP180;5983;49.966;8.052;2023-06-22T13:16:41;100147.00;;;33.40
11849;BMP180;5983;49.966;8.052;2023-06-22T13:19:08;100124.00;;;33.30
11849;BMP180;5983;49.966;8.052;2023-06-22T13:21:35;100129.00;;;33.20
11849;BMP180;5983;49.966;8.052;2023-06-22T13:24:02;100130.00;;;33.20
11849;BMP180;5983;49.966;8.052;2023-06-22T13:26:30;100129.00;;;33.10
11849;BMP180;5983;49.966;8.052;2023-06-22T13:28:57;100130.00;;;32.90
11849;BMP180;5983;49.966;8.052;2023-06-22T13:31:24;100125.00;;;32.80
11849;BMP180;5983;49.966;8.052;2023-06-22T13:33:50;100116.00;;;32.70
11849;BMP180;5983;49.966;8.052;2023-06-22T13:36:18;100103.00;;;32.50
11849;BMP180;5983;49.966;8.052;2023-06-22T13:38:45;100098.00;;;32.50
11849;BMP180;5983;49.966;8.052;2023-06-22T13:41:12;100099.00;;;32.50
11849;BMP180;5983;49.966;8.052;2023-06-22T13:43:40;100087.00;;;32.60
11849;BMP180;5983;49.966;8.052;2023-06-22T13:46:07;100088.00;;;32.60
11849;BMP180;5983;49.966;8.052;2023-06-22T13:48:33;100077.00;;;32.70
11849;BMP180;5983;49.966;8.052;2023-06-22T13:51:00;100073.00;;;32.70
11849;BMP180;5983;49.966;8.052;2023-06-22T13:53:27;100079.00;;;32.50
11849;BMP180;5983;49.966;8.052;2023-06-22T13:55:54;100064.00;;;32.40
11849;BMP180;5983;49.966;8.052;2023-06-22T13:58:21;100050.00;;;32.30
11849;BMP180;5983;49.966;8.052;2023-06-22T14:00:49;100027.00;;;32.20
11849;BMP180;5983;49.966;8.052;2023-06-22T14:03:16;100007.00;;;32.00
11849;BMP180;5983;49.966;8.052;2023-06-22T14:05:43;100000.00;;;31.90
11849;BMP180;5983;49.966;8.052;2023-06-22T14:08:09;100004.00;;;31.80
11849;BMP180;5983;49.966;8.052;2023-06-22T14:10:36;99998.00;;;31.60
11849;BMP180;5983;49.966;8.052;2023-06-22T14:13:03;99994.00;;;31.50
11849;BMP180;5983;49.966;8.052;2023-06-22T14:15:31;99994.00;;;31.30